sensor_id;sensor_type;location;lat;lon;timestamp;temperature;humidity
5901;DHT22;2976;49.764;9.796;2022-12-16T00:00:01;-3.70;99.90
5901;DHT22;2976;49.764;9.796;2022-12-16T00:02:27;-3.60;99.90
5901;DHT22;2976;49.764;9.796;2022-12-16T00:04:53;-3.60;99.90
5901;DHT22;2976;49.764;9.796;2022-12-16T00:07:19;-3.60;99.90
5901;DHT22;2976;49.764;9.796;2022-12-16T00:09:44;-3.50;99.90
5901;DHT22;2976;49.764;9.796;2022-12-16T00:12:10;-3.50;99.90
5901;DHT22;2976;49.764;9.796;2022-12-16T00:14:35;-3.50;99.90
5901;DHT22;2976;49.764;9.796;2022-12-16T00:17:01;-3.40;99.90
5901;DHT22;2976;49.764;9.796;2022-12-16T00:19:26;-3.40;99.90
5901;DHT22;2976;49.764;9.796;2022-12-16T00:21:52;-3.50;99.90
5901;DHT22;2976;49.764;9.796;2022-12-16T00:24:17;-3.50;99.90
5901;DHT22;2976;49.764;9.796;2022-12-16T00:26:43;-3.50;99.90
5901;DHT22;2976;49.764;9.796;2022-12-16T00:29:08;-3.40;99.90
5901;DHT22;2976;49.764;9.796;2022-12-16T00:31:35;-3.40;99.90
5901;DHT22;2976;49.764;9.796;2022-12-16T00:34:01;-3.40;99.90
5901;DHT22;2976;49.764;9.796;2022-12-16T00:36:26;-3.40;99.90
5901;DHT22;2976;49.764;9.796;2022-12-16T00:38:52;-3.40;99.90
5901;DHT22;2976;49.764;9.796;2022-12-16T00:41:18;-3.50;99.90
5901;DHT22;2976;49.764;9.796;2022-12-16T00:43:43;-3.60;99.90
5901;DHT22;2976;49.764;9.796;2022-12-16T00:46:09;-3.60;99.90
5901;DHT22;2976;49.764;9.796;2022-12-16T00:48:34;-3.60;99.90
5901;DHT22;2976;49.764;9.796;2022-12-16T00:51:00;-3.70;99.90
5901;DHT22;2976;49.764;9.796;2022-12-16T00:53:25;-3.70;99.90
5901;DHT22;2976;49.764;9.796;2022-12-16T00:56:10;-3.80;99.90
5901;DHT22;2976;49.764;9.796;2022-12-16T00:58:36;-3.90;99.90
5901;DHT22;2976;49.764;9.796;2022-12-16T01:01:03;-3.90;99.90
5901;DHT22;2976;49.764;9.796;2022-12-16T01:03:29;-3.90;99.90
5901;DHT22;2976;49.764;9.796;2022-12-16T01:05:55;-3.90;99.90
5901;DHT22;2976;49.764;9.796;2022-12-16T01:08:20;-3.80;99.90
5901;DHT22;2976;49.764;9.796;2022-12-16T01:10:54;-3.80;99.90
5901;DHT22;2976;49.764;9.796;2022-12-16T01:13:20;-3.80;99.90
5901;DHT22;2976;49.764;9.796;2022-12-16T01:15:46;-3.70;99.90
5901;DHT22;2976;49.764;9.796;2022-12-16T01:18:11;-3.70;99.90
5901;DHT22;2976;49.764;9.796;2022-12-16T01:20:37;-3.70;99.90
5901;DHT22;2976;49.764;9.796;2022-12-16T01:23:03;-3.70;99.90
5901;DHT22;2976;49.764;9.796;2022-12-16T01:25:29;-3.60;99.90
5901;DHT22;2976;49.764;9.796;2022-12-16T01:27:54;-3.60;99.90
5901;DHT22;2976;49.764;9.796;2022-12-16T01:30:20;-3.60;99.90
5901;DHT22;2976;49.764;9.796;2022-12-16T01:32:46;-3.60;99.90
5901;DHT22;2976;49.764;9.796;2022-12-16T01:35:12;-3.60;99.90
5901;DHT22;2976;49.764;9.796;2022-12-16T01:37:38;-3.60;99.90
5901;DHT22;2976;49.764;9.796;2022-12-16T01:40:05;-3.60;99.90
5901;DHT22;2976;49.764;9.796;2022-12-16T01:42:30;-3.60;99.90
5901;DHT22;2976;49.764;9.796;2022-12-16T01:47:50;-3.70;99.90
5901;DHT22;2976;49.764;9.796;2022-12-16T01:50:17;-3.70;99.90
5901;DHT22;2976;49.764;9.796;2022-12-16T01:52:48;-3.70;99.90
5901;DHT22;2976;49.764;9.796;2022-12-16T01:55:23;-3.60;99.90
5901;DHT22;2976;49.764;9.796;2022-12-16T01:58:04;-3.60;99.90
5901;DHT22;2976;49.764;9.796;2022-12-16T02:00:32;-3.60;99.90
5901;DHT22;2976;49.764;9.796;2022-12-16T02:02:58;-3.60;99.90
5901;DHT22;2976;49.764;9.796;2022-12-16T02:05:24;-3.60;99.90
5901;DHT22;2976;49.764;9.796;2022-12-16T02:10:24;-3.70;99.90
5901;DHT22;2976;49.764;9.796;2022-12-16T02:13:05;-3.70;99.90
5901;DHT22;2976;49.764;9.796;2022-12-16T02:15:44;-3.70;99.90
5901;DHT22;2976;49.764;9.796;2022-12-16T02:24:19;-3.80;99.90
5901;DHT22;2976;49.764;9.796;2022-12-16T02:36:02;-3.80;99.90
5901;DHT22;2976;49.764;9.796;2022-12-16T02:38:42;-3.90;99.90
5901;DHT22;2976;49.764;9.796;2022-12-16T02:41:20;-3.90;99.90
5901;DHT22;2976;49.764;9.796;2022-12-16T02:44:02;-3.90;99.90
5901;DHT22;2976;49.764;9.796;2022-12-16T02:46:30;-3.90;99.90
5901;DHT22;2976;49.764;9.796;2022-12-16T02:51:49;-3.80;99.90
5901;DHT22;2976;49.764;9.796;2022-12-16T02:54:16;-3.60;99.90
5901;DHT22;2976;49.764;9.796;2022-12-16T03:02:15;-3.30;83.60
5901;DHT22;2976;49.764;9.796;2022-12-16T03:04:50;-3.20;70.80
5901;DHT22;2976;49.764;9.796;2022-12-16T03:07:18;-3.10;73.00
5901;DHT22;2976;49.764;9.796;2022-12-16T03:09:46;-3.10;68.30
5901;DHT22;2976;49.764;9.796;2022-12-16T03:12:15;-3.10;62.10
5901;DHT22;2976;49.764;9.796;2022-12-16T03:14:44;-3.00;56.90
5901;DHT22;2976;49.764;9.796;2022-12-16T03:17:12;-3.00;61.00
5901;DHT22;2976;49.764;9.796;2022-12-16T03:19:39;-3.00;60.80
5901;DHT22;2976;49.764;9.796;2022-12-16T03:22:16;-3.00;50.20
5901;DHT22;2976;49.764;9.796;2022-12-16T03:24:43;-3.00;47.30
5901;DHT22;2976;49.764;9.796;2022-12-16T03:27:22;-3.00;49.10
5901;DHT22;2976;49.764;9.796;2022-12-16T03:32:23;-3.10;49.50
5901;DHT22;2976;49.764;9.796;2022-12-16T03:34:56;-3.10;52.40
5901;DHT22;2976;49.764;9.796;2022-12-16T03:37:26;-3.10;45.10
5901;DHT22;2976;49.764;9.796;2022-12-16T03:39:56;-3.10;43.50
5901;DHT22;2976;49.764;9.796;2022-12-16T03:42:23;-3.10;46.70
5901;DHT22;2976;49.764;9.796;2022-12-16T03:44:49;-3.20;49.40
5901;DHT22;2976;49.764;9.796;2022-12-16T03:47:15;-3.20;53.80
5901;DHT22;2976;49.764;9.796;2022-12-16T03:49:40;-3.30;53.60
5901;DHT22;2976;49.764;9.796;2022-12-16T03:52:06;-3.40;55.70
5901;DHT22;2976;49.764;9.796;2022-12-16T03:54:32;-3.40;56.00
5901;DHT22;2976;49.764;9.796;2022-12-16T03:56:57;-3.40;57.60
5901;DHT22;2976;49.764;9.796;2022-12-16T03:59:23;-3.50;63.50
5901;DHT22;2976;49.764;9.796;2022-12-16T04:01:50;-3.60;63.40
5901;DHT22;2976;49.764;9.796;2022-12-16T04:04:16;-3.60;60.60
5901;DHT22;2976;49.764;9.796;2022-12-16T04:06:42;-3.70;65.70
5901;DHT22;2976;49.764;9.796;2022-12-16T04:09:08;-3.80;65.20
5901;DHT22;2976;49.764;9.796;2022-12-16T04:11:34;-3.80;71.20
5901;DHT22;2976;49.764;9.796;2022-12-16T04:14:18;-3.90;74.00
5901;DHT22;2976;49.764;9.796;2022-12-16T04:17:03;-3.90;74.20
5901;DHT22;2976;49.764;9.796;2022-12-16T04:19:48;-4.00;68.50
5901;DHT22;2976;49.764;9.796;2022-12-16T04:22:34;-4.10;70.20
5901;DHT22;2976;49.764;9.796;2022-12-16T04:25:24;-4.10;71.80
5901;DHT22;2976;49.764;9.796;2022-12-16T04:27:51;-4.10;73.70
5901;DHT22;2976;49.764;9.796;2022-12-16T04:30:18;-4.20;76.80
5901;DHT22;2976;49.764;9.796;2022-12-16T04:32:55;-4.30;78.70
5901;DHT22;2976;49.764;9.796;2022-12-16T04:35:40;-4.30;87.90
5901;DHT22;2976;49.764;9.796;2022-12-16T04:38:24;-4.40;89.50
5901;DHT22;2976;49.764;9.796;2022-12-16T04:41:08;-4.50;92.90
5901;DHT22;2976;49.764;9.796;2022-12-16T04:43:52;-4.50;96.00
5901;DHT22;2976;49.764;9.796;2022-12-16T04:46:36;-4.60;94.20
5901;DHT22;2976;49.764;9.796;2022-12-16T04:49:20;-4.60;92.50
5901;DHT22;2976;49.764;9.796;2022-12-16T04:52:04;-4.60;92.80
5901;DHT22;2976;49.764;9.796;2022-12-16T04:54:48;-4.70;92.60
5901;DHT22;2976;49.764;9.796;2022-12-16T04:57:33;-4.80;94.00
5901;DHT22;2976;49.764;9.796;2022-12-16T05:00:18;-4.90;93.70
5901;DHT22;2976;49.764;9.796;2022-12-16T05:03:02;-4.90;93.00
5901;DHT22;2976;49.764;9.796;2022-12-16T05:05:46;-5.00;97.20
5901;DHT22;2976;49.764;9.796;2022-12-16T05:08:30;-5.00;91.00
5901;DHT22;2976;49.764;9.796;2022-12-16T05:11:15;-4.90;85.70
5901;DHT22;2976;49.764;9.796;2022-12-16T05:13:59;-5.00;83.00
5901;DHT22;2976;49.764;9.796;2022-12-16T05:16:43;-5.00;79.60
5901;DHT22;2976;49.764;9.796;2022-12-16T05:19:27;-5.00;77.20
5901;DHT22;2976;49.764;9.796;2022-12-16T05:22:11;-5.00;71.10
5901;DHT22;2976;49.764;9.796;2022-12-16T05:24:55;-5.00;70.00
5901;DHT22;2976;49.764;9.796;2022-12-16T05:27:39;-5.10;71.50
5901;DHT22;2976;49.764;9.796;2022-12-16T05:30:23;-5.20;76.80
5901;DHT22;2976;49.764;9.796;2022-12-16T05:33:07;-5.30;80.10
5901;DHT22;2976;49.764;9.796;2022-12-16T05:35:52;-5.30;80.30
5901;DHT22;2976;49.764;9.796;2022-12-16T05:38:35;-5.40;80.80
5901;DHT22;2976;49.764;9.796;2022-12-16T05:41:19;-5.40;82.20
5901;DHT22;2976;49.764;9.796;2022-12-16T05:44:04;-5.50;85.30
5901;DHT22;2976;49.764;9.796;2022-12-16T05:46:48;-5.40;82.70
5901;DHT22;2976;49.764;9.796;2022-12-16T05:49:32;-5.40;76.40
5901;DHT22;2976;49.764;9.796;2022-12-16T05:52:16;-5.40;68.00
5901;DHT22;2976;49.764;9.796;2022-12-16T05:55:00;-5.30;64.60
5901;DHT22;2976;49.764;9.796;2022-12-16T05:57:48;-5.30;63.60
5901;DHT22;2976;49.764;9.796;2022-12-16T06:00:32;-5.20;59.70
5901;DHT22;2976;49.764;9.796;2022-12-16T06:03:17;-5.30;63.10
5901;DHT22;2976;49.764;9.796;2022-12-16T06:06:00;-5.30;60.40
5901;DHT22;2976;49.764;9.796;2022-12-16T06:08:44;-5.50;63.70
5901;DHT22;2976;49.764;9.796;2022-12-16T06:11:28;-5.50;65.20
5901;DHT22;2976;49.764;9.796;2022-12-16T06:14:12;-5.50;61.60
5901;DHT22;2976;49.764;9.796;2022-12-16T06:16:56;-5.50;60.50
5901;DHT22;2976;49.764;9.796;2022-12-16T06:19:40;-5.60;61.90
5901;DHT22;2976;49.764;9.796;2022-12-16T06:22:24;-5.80;73.80
5901;DHT22;2976;49.764;9.796;2022-12-16T06:25:08;-6.00;81.20
5901;DHT22;2976;49.764;9.796;2022-12-16T06:27:52;-6.00;85.50
5901;DHT22;2976;49.764;9.796;2022-12-16T06:30:37;-6.10;87.60
5901;DHT22;2976;49.764;9.796;2022-12-16T06:33:21;-6.20;93.40
5901;DHT22;2976;49.764;9.796;2022-12-16T06:36:06;-6.20;91.90
5901;DHT22;2976;49.764;9.796;2022-12-16T06:38:50;-6.30;93.90
5901;DHT22;2976;49.764;9.796;2022-12-16T06:41:34;-6.40;96.60
5901;DHT22;2976;49.764;9.796;2022-12-16T06:44:18;-6.60;99.90
5901;DHT22;2976;49.764;9.796;2022-12-16T06:47:02;-6.60;99.90
5901;DHT22;2976;49.764;9.796;2022-12-16T06:49:46;-6.70;99.90
5901;DHT22;2976;49.764;9.796;2022-12-16T06:52:30;-6.90;99.90
5901;DHT22;2976;49.764;9.796;2022-12-16T06:55:14;-7.00;99.90
5901;DHT22;2976;49.764;9.796;2022-12-16T06:57:59;-7.20;99.90
5901;DHT22;2976;49.764;9.796;2022-12-16T07:00:43;-7.40;99.90
5901;DHT22;2976;49.764;9.796;2022-12-16T07:03:27;-7.50;99.90
5901;DHT22;2976;49.764;9.796;2022-12-16T07:06:11;-7.50;99.90
5901;DHT22;2976;49.764;9.796;2022-12-16T07:08:55;-7.50;99.90
5901;DHT22;2976;49.764;9.796;2022-12-16T07:11:39;-7.50;99.90
5901;DHT22;2976;49.764;9.796;2022-12-16T07:14:23;-7.50;99.90
5901;DHT22;2976;49.764;9.796;2022-12-16T07:17:07;-7.50;99.90
5901;DHT22;2976;49.764;9.796;2022-12-16T07:19:51;-7.60;99.90
5901;DHT22;2976;49.764;9.796;2022-12-16T07:22:35;-7.70;99.90
5901;DHT22;2976;49.764;9.796;2022-12-16T07:25:19;-7.70;99.90
5901;DHT22;2976;49.764;9.796;2022-12-16T07:28:03;-7.80;99.90
5901;DHT22;2976;49.764;9.796;2022-12-16T07:30:47;-7.70;99.90
5901;DHT22;2976;49.764;9.796;2022-12-16T07:33:31;-7.70;99.90
5901;DHT22;2976;49.764;9.796;2022-12-16T07:36:15;-7.60;99.90
5901;DHT22;2976;49.764;9.796;2022-12-16T07:38:59;-7.40;99.90
5901;DHT22;2976;49.764;9.796;2022-12-16T07:41:43;-7.30;99.90
5901;DHT22;2976;49.764;9.796;2022-12-16T07:44:27;-7.30;99.90
5901;DHT22;2976;49.764;9.796;2022-12-16T07:47:12;-7.40;99.90
5901;DHT22;2976;49.764;9.796;2022-12-16T07:49:56;-7.40;99.90
5901;DHT22;2976;49.764;9.796;2022-12-16T07:52:44;-7.50;99.90
5901;DHT22;2976;49.764;9.796;2022-12-16T07:55:28;-7.60;99.90
5901;DHT22;2976;49.764;9.796;2022-12-16T07:58:13;-7.60;99.90
5901;DHT22;2976;49.764;9.796;2022-12-16T08:00:57;-7.60;99.90
5901;DHT22;2976;49.764;9.796;2022-12-16T08:03:41;-7.60;99.90
5901;DHT22;2976;49.764;9.796;2022-12-16T08:06:25;-7.60;99.90
5901;DHT22;2976;49.764;9.796;2022-12-16T08:09:09;-7.60;99.90
5901;DHT22;2976;49.764;9.796;2022-12-16T08:11:53;-7.60;99.90
5901;DHT22;2976;49.764;9.796;2022-12-16T08:14:37;-7.60;99.90
5901;DHT22;2976;49.764;9.796;2022-12-16T08:17:20;-7.60;99.90
5901;DHT22;2976;49.764;9.796;2022-12-16T08:20:05;-7.50;99.90
5901;DHT22;2976;49.764;9.796;2022-12-16T08:22:49;-7.40;99.90
5901;DHT22;2976;49.764;9.796;2022-12-16T08:25:33;-7.40;99.90
5901;DHT22;2976;49.764;9.796;2022-12-16T08:28:17;-7.30;99.90
5901;DHT22;2976;49.764;9.796;2022-12-16T08:31:01;-7.30;99.90
5901;DHT22;2976;49.764;9.796;2022-12-16T08:33:45;-7.30;99.90
5901;DHT22;2976;49.764;9.796;2022-12-16T08:36:29;-7.30;99.90
5901;DHT22;2976;49.764;9.796;2022-12-16T08:39:13;-7.30;99.90
5901;DHT22;2976;49.764;9.796;2022-12-16T08:41:57;-7.30;99.90
5901;DHT22;2976;49.764;9.796;2022-12-16T08:44:41;-7.30;99.90
5901;DHT22;2976;49.764;9.796;2022-12-16T08:47:25;-7.20;99.90
5901;DHT22;2976;49.764;9.796;2022-12-16T08:50:09;-7.20;99.90
5901;DHT22;2976;49.764;9.796;2022-12-16T08:52:53;-7.10;99.90
5901;DHT22;2976;49.764;9.796;2022-12-16T08:55:38;-7.00;99.90
5901;DHT22;2976;49.764;9.796;2022-12-16T08:58:21;-7.00;99.90
5901;DHT22;2976;49.764;9.796;2022-12-16T09:01:06;-6.80;99.90
5901;DHT22;2976;49.764;9.796;2022-12-16T09:03:50;-6.80;99.90
5901;DHT22;2976;49.764;9.796;2022-12-16T09:06:34;-6.70;99.90
5901;DHT22;2976;49.764;9.796;2022-12-16T09:09:18;-6.60;99.90
5901;DHT22;2976;49.764;9.796;2022-12-16T09:12:02;-6.60;99.90
5901;DHT22;2976;49.764;9.796;2022-12-16T09:14:46;-6.50;99.90
5901;DHT22;2976;49.764;9.796;2022-12-16T09:17:30;-6.40;99.90
5901;DHT22;2976;49.764;9.796;2022-12-16T09:20:14;-6.30;99.90
5901;DHT22;2976;49.764;9.796;2022-12-16T09:23:03;-6.20;99.90
5901;DHT22;2976;49.764;9.796;2022-12-16T09:25:47;-6.20;99.90
5901;DHT22;2976;49.764;9.796;2022-12-16T09:28:31;-6.10;99.90
5901;DHT22;2976;49.764;9.796;2022-12-16T09:31:15;-6.10;99.90
5901;DHT22;2976;49.764;9.796;2022-12-16T09:33:59;-6.00;99.90
5901;DHT22;2976;49.764;9.796;2022-12-16T09:36:43;-5.80;99.90
5901;DHT22;2976;49.764;9.796;2022-12-16T09:39:27;-5.70;96.50
5901;DHT22;2976;49.764;9.796;2022-12-16T09:45:22;-4.50;98.30
5901;DHT22;2976;49.764;9.796;2022-12-16T09:48:25;-3.60;94.40
5901;DHT22;2976;49.764;9.796;2022-12-16T09:51:12;-2.80;73.90
5901;DHT22;2976;49.764;9.796;2022-12-16T09:53:58;-1.80;39.20
5901;DHT22;2976;49.764;9.796;2022-12-16T09:56:44;-1.20;1.00
5901;DHT22;2976;49.764;9.796;2022-12-16T09:59:33;-0.80;1.00
5901;DHT22;2976;49.764;9.796;2022-12-16T10:02:19;-1.30;1.00
5901;DHT22;2976;49.764;9.796;2022-12-16T10:05:10;-1.50;1.00
5901;DHT22;2976;49.764;9.796;2022-12-16T10:08:25;-1.70;1.00
5901;DHT22;2976;49.764;9.796;2022-12-16T10:11:17;-1.90;1.00
5901;DHT22;2976;49.764;9.796;2022-12-16T10:14:18;-1.30;1.00
5901;DHT22;2976;49.764;9.796;2022-12-16T10:17:12;-0.70;1.00
5901;DHT22;2976;49.764;9.796;2022-12-16T10:26:26;-0.60;1.00
5901;DHT22;2976;49.764;9.796;2022-12-16T10:29:19;-1.60;1.00
5901;DHT22;2976;49.764;9.796;2022-12-16T10:32:28;-1.60;1.00
5901;DHT22;2976;49.764;9.796;2022-12-16T10:35:23;-1.60;1.00
5901;DHT22;2976;49.764;9.796;2022-12-16T10:38:35;-1.80;1.00
5901;DHT22;2976;49.764;9.796;2022-12-16T10:41:24;-1.70;1.00
5901;DHT22;2976;49.764;9.796;2022-12-16T10:44:30;-1.60;1.00
5901;DHT22;2976;49.764;9.796;2022-12-16T10:47:16;-1.70;1.00
5901;DHT22;2976;49.764;9.796;2022-12-16T10:50:00;-1.70;1.00
5901;DHT22;2976;49.764;9.796;2022-12-16T10:52:57;-1.80;1.00
5901;DHT22;2976;49.764;9.796;2022-12-16T10:56:17;-1.70;1.00
5901;DHT22;2976;49.764;9.796;2022-12-16T10:59:06;-1.60;1.00
5901;DHT22;2976;49.764;9.796;2022-12-16T11:05:00;-1.40;1.00
5901;DHT22;2976;49.764;9.796;2022-12-16T11:10:37;-1.50;1.00
5901;DHT22;2976;49.764;9.796;2022-12-16T11:13:31;-1.40;1.00
5901;DHT22;2976;49.764;9.796;2022-12-16T11:19:03;-1.10;1.00
5901;DHT22;2976;49.764;9.796;2022-12-16T11:21:48;-1.10;1.00
5901;DHT22;2976;49.764;9.796;2022-12-16T11:24:33;-1.30;1.00
5901;DHT22;2976;49.764;9.796;2022-12-16T11:27:31;-1.70;1.00
5901;DHT22;2976;49.764;9.796;2022-12-16T11:30:20;-1.90;1.00
5901;DHT22;2976;49.764;9.796;2022-12-16T11:33:20;-2.10;1.00
5901;DHT22;2976;49.764;9.796;2022-12-16T11:36:21;-2.30;4.60
5901;DHT22;2976;49.764;9.796;2022-12-16T11:39:06;-2.50;1.00
5901;DHT22;2976;49.764;9.796;2022-12-16T11:41:56;-2.60;14.40
5901;DHT22;2976;49.764;9.796;2022-12-16T11:44:48;-2.60;18.20
5901;DHT22;2976;49.764;9.796;2022-12-16T11:50:35;-2.20;15.50
5901;DHT22;2976;49.764;9.796;2022-12-16T11:53:44;-1.90;17.70
5901;DHT22;2976;49.764;9.796;2022-12-16T11:56:43;-1.70;19.90
5901;DHT22;2976;49.764;9.796;2022-12-16T11:59:44;-1.50;26.30
5901;DHT22;2976;49.764;9.796;2022-12-16T12:05:28;-0.90;12.20
5901;DHT22;2976;49.764;9.796;2022-12-16T12:08:27;-0.70;13.30
5901;DHT22;2976;49.764;9.796;2022-12-16T12:11:25;-0.40;7.30
5901;DHT22;2976;49.764;9.796;2022-12-16T12:14:38;-0.20;1.00
5901;DHT22;2976;49.764;9.796;2022-12-16T12:20:59;0.00;1.00
5901;DHT22;2976;49.764;9.796;2022-12-16T12:24:02;0.10;1.00
5901;DHT22;2976;49.764;9.796;2022-12-16T12:27:09;-0.20;1.00
5901;DHT22;2976;49.764;9.796;2022-12-16T12:30:09;-0.40;1.00
5901;DHT22;2976;49.764;9.796;2022-12-16T12:33:19;-0.30;1.00
5901;DHT22;2976;49.764;9.796;2022-12-16T12:36:33;-0.30;1.00
5901;DHT22;2976;49.764;9.796;2022-12-16T12:39:22;-0.40;1.00
5901;DHT22;2976;49.764;9.796;2022-12-16T12:48:46;-0.80;1.00
5901;DHT22;2976;49.764;9.796;2022-12-16T12:57:49;-1.10;1.00
5901;DHT22;2976;49.764;9.796;2022-12-16T13:00:56;-1.10;1.00
5901;DHT22;2976;49.764;9.796;2022-12-16T13:03:56;-1.00;1.00
5901;DHT22;2976;49.764;9.796;2022-12-16T13:06:41;-1.00;1.00
5901;DHT22;2976;49.764;9.796;2022-12-16T13:15:17;-0.80;1.00
5901;DHT22;2976;49.764;9.796;2022-12-16T13:20:56;-0.70;1.00
5901;DHT22;2976;49.764;9.796;2022-12-16T13:23:42;-0.60;1.00
5901;DHT22;2976;49.764;9.796;2022-12-16T13:26:30;-0.50;1.00
5901;DHT22;2976;49.764;9.796;2022-12-16T13:32:17;-0.20;5.10
5901;DHT22;2976;49.764;9.796;2022-12-16T13:35:15;-0.10;1.00
5901;DHT22;2976;49.764;9.796;2022-12-16T13:38:33;-0.10;1.00
5901;DHT22;2976;49.764;9.796;2022-12-16T13:44:11;0.00;3.30
5901;DHT22;2976;49.764;9.796;2022-12-16T13:46:56;0.00;1.00
5901;DHT22;2976;49.764;9.796;2022-12-16T13:49:49;0.00;1.00
5901;DHT22;2976;49.764;9.796;2022-12-16T13:52:46;0.00;1.00
5901;DHT22;2976;49.764;9.796;2022-12-16T13:55:43;-0.20;1.00
5901;DHT22;2976;49.764;9.796;2022-12-16T13:58:49;-0.20;1.00
5901;DHT22;2976;49.764;9.796;2022-12-16T14:01:54;-0.40;1.00
5901;DHT22;2976;49.764;9.796;2022-12-16T14:07:30;-0.60;1.00
5901;DHT22;2976;49.764;9.796;2022-12-16T14:10:34;-0.60;1.00
5901;DHT22;2976;49.764;9.796;2022-12-16T14:22:54;-0.90;1.00
5901;DHT22;2976;49.764;9.796;2022-12-16T14:25:43;-0.90;1.00
5901;DHT22;2976;49.764;9.796;2022-12-16T14:28:35;-0.80;1.00
5901;DHT22;2976;49.764;9.796;2022-12-16T14:34:24;-0.80;1.00
5901;DHT22;2976;49.764;9.796;2022-12-16T14:37:16;-0.90;1.00
5901;DHT22;2976;49.764;9.796;2022-12-16T14:40:00;-1.00;1.00
5901;DHT22;2976;49.764;9.796;2022-12-16T14:42:46;-1.10;2.50
5901;DHT22;2976;49.764;9.796;2022-12-16T14:45:34;-1.10;1.00
5901;DHT22;2976;49.764;9.796;2022-12-16T14:57:01;-1.20;6.30
5901;DHT22;2976;49.764;9.796;2022-12-16T14:59:45;-1.20;11.60
5901;DHT22;2976;49.764;9.796;2022-12-16T15:02:34;-1.20;17.80
5901;DHT22;2976;49.764;9.796;2022-12-16T15:05:21;-1.30;22.10
5901;DHT22;2976;49.764;9.796;2022-12-16T15:08:11;-1.40;25.00
5901;DHT22;2976;49.764;9.796;2022-12-16T15:10:55;-1.50;27.70
5901;DHT22;2976;49.764;9.796;2022-12-16T15:13:39;-1.50;30.80
5901;DHT22;2976;49.764;9.796;2022-12-16T15:16:29;-1.60;36.90
5901;DHT22;2976;49.764;9.796;2022-12-16T15:19:18;-1.60;34.40
5901;DHT22;2976;49.764;9.796;2022-12-16T15:22:02;-1.70;36.00
5901;DHT22;2976;49.764;9.796;2022-12-16T15:24:47;-1.70;34.60
5901;DHT22;2976;49.764;9.796;2022-12-16T15:27:36;-1.70;27.80
5901;DHT22;2976;49.764;9.796;2022-12-16T15:30:43;-1.70;26.10
5901;DHT22;2976;49.764;9.796;2022-12-16T15:33:37;-1.60;23.20
5901;DHT22;2976;49.764;9.796;2022-12-16T15:36:25;-1.70;23.60
5901;DHT22;2976;49.764;9.796;2022-12-16T15:39:34;-1.80;22.50
5901;DHT22;2976;49.764;9.796;2022-12-16T15:42:31;-1.80;23.20
5901;DHT22;2976;49.764;9.796;2022-12-16T15:45:26;-1.80;24.30
5901;DHT22;2976;49.764;9.796;2022-12-16T15:48:32;-1.90;28.30
5901;DHT22;2976;49.764;9.796;2022-12-16T15:51:29;-1.90;25.10
5901;DHT22;2976;49.764;9.796;2022-12-16T15:54:17;-1.90;28.30
5901;DHT22;2976;49.764;9.796;2022-12-16T15:57:01;-1.90;29.30
5901;DHT22;2976;49.764;9.796;2022-12-16T15:59:58;-1.90;27.90
5901;DHT22;2976;49.764;9.796;2022-12-16T16:02:47;-1.90;28.10
5901;DHT22;2976;49.764;9.796;2022-12-16T16:05:32;-1.90;27.10
5901;DHT22;2976;49.764;9.796;2022-12-16T16:08:16;-2.00;26.40
5901;DHT22;2976;49.764;9.796;2022-12-16T16:11:00;-2.00;26.50
5901;DHT22;2976;49.764;9.796;2022-12-16T16:13:44;-2.00;27.40
5901;DHT22;2976;49.764;9.796;2022-12-16T16:16:29;-2.10;28.00
5901;DHT22;2976;49.764;9.796;2022-12-16T16:19:24;-2.10;29.30
5901;DHT22;2976;49.764;9.796;2022-12-16T16:22:16;-2.10;33.10
5901;DHT22;2976;49.764;9.796;2022-12-16T16:25:01;-2.20;39.50
5901;DHT22;2976;49.764;9.796;2022-12-16T16:27:45;-2.30;47.00
5901;DHT22;2976;49.764;9.796;2022-12-16T16:30:30;-2.40;57.70
5901;DHT22;2976;49.764;9.796;2022-12-16T16:33:14;-2.60;66.60
5901;DHT22;2976;49.764;9.796;2022-12-16T16:35:58;-2.70;72.40
5901;DHT22;2976;49.764;9.796;2022-12-16T16:38:42;-2.80;80.80
5901;DHT22;2976;49.764;9.796;2022-12-16T16:41:26;-2.90;88.60
5901;DHT22;2976;49.764;9.796;2022-12-16T16:44:10;-3.00;93.70
5901;DHT22;2976;49.764;9.796;2022-12-16T16:46:55;-3.10;96.50
5901;DHT22;2976;49.764;9.796;2022-12-16T16:49:44;-3.20;99.00
5901;DHT22;2976;49.764;9.796;2022-12-16T16:52:28;-3.30;99.90
5901;DHT22;2976;49.764;9.796;2022-12-16T16:55:18;-3.50;99.90
5901;DHT22;2976;49.764;9.796;2022-12-16T16:58:11;-3.60;99.90
5901;DHT22;2976;49.764;9.796;2022-12-16T17:00:55;-3.70;99.90
5901;DHT22;2976;49.764;9.796;2022-12-16T17:03:39;-3.70;99.90
5901;DHT22;2976;49.764;9.796;2022-12-16T17:06:23;-3.80;99.90
5901;DHT22;2976;49.764;9.796;2022-12-16T17:09:07;-3.80;99.90
5901;DHT22;2976;49.764;9.796;2022-12-16T17:11:51;-4.00;99.90
5901;DHT22;2976;49.764;9.796;2022-12-16T17:14:35;-4.10;99.90
5901;DHT22;2976;49.764;9.796;2022-12-16T17:17:19;-4.20;99.90
5901;DHT22;2976;49.764;9.796;2022-12-16T17:20:04;-4.30;99.90
5901;DHT22;2976;49.764;9.796;2022-12-16T17:22:48;-4.30;99.90
5901;DHT22;2976;49.764;9.796;2022-12-16T17:25:32;-4.40;99.90
5901;DHT22;2976;49.764;9.796;2022-12-16T17:28:16;-4.60;99.90
5901;DHT22;2976;49.764;9.796;2022-12-16T17:31:00;-4.60;99.90
5901;DHT22;2976;49.764;9.796;2022-12-16T17:33:44;-4.80;99.90
5901;DHT22;2976;49.764;9.796;2022-12-16T17:36:28;-5.00;99.90
5901;DHT22;2976;49.764;9.796;2022-12-16T17:39:12;-5.10;99.90
5901;DHT22;2976;49.764;9.796;2022-12-16T17:41:56;-5.30;99.90
5901;DHT22;2976;49.764;9.796;2022-12-16T17:44:41;-5.40;99.90
5901;DHT22;2976;49.764;9.796;2022-12-16T17:47:24;-5.40;99.90
5901;DHT22;2976;49.764;9.796;2022-12-16T17:50:09;-5.40;99.90
5901;DHT22;2976;49.764;9.796;2022-12-16T17:52:56;-5.30;99.90
5901;DHT22;2976;49.764;9.796;2022-12-16T17:55:41;-5.40;99.90
5901;DHT22;2976;49.764;9.796;2022-12-16T17:58:33;-5.50;99.90
5901;DHT22;2976;49.764;9.796;2022-12-16T18:01:18;-5.70;99.90
5901;DHT22;2976;49.764;9.796;2022-12-16T18:04:03;-5.80;99.90
5901;DHT22;2976;49.764;9.796;2022-12-16T18:06:46;-5.90;99.90
5901;DHT22;2976;49.764;9.796;2022-12-16T18:09:30;-6.00;99.90
5901;DHT22;2976;49.764;9.796;2022-12-16T18:12:15;-6.10;99.90
5901;DHT22;2976;49.764;9.796;2022-12-16T18:15:16;-6.20;99.90
5901;DHT22;2976;49.764;9.796;2022-12-16T18:18:00;-6.10;99.90
5901;DHT22;2976;49.764;9.796;2022-12-16T18:20:44;-6.10;99.90
5901;DHT22;2976;49.764;9.796;2022-12-16T18:23:29;-6.00;99.90
5901;DHT22;2976;49.764;9.796;2022-12-16T18:26:13;-6.10;99.90
5901;DHT22;2976;49.764;9.796;2022-12-16T18:28:57;-6.10;99.90
5901;DHT22;2976;49.764;9.796;2022-12-16T18:31:41;-6.20;99.90
5901;DHT22;2976;49.764;9.796;2022-12-16T18:34:25;-6.20;99.90
5901;DHT22;2976;49.764;9.796;2022-12-16T18:37:13;-6.30;99.90
5901;DHT22;2976;49.764;9.796;2022-12-16T18:39:57;-6.30;99.90
5901;DHT22;2976;49.764;9.796;2022-12-16T18:42:41;-6.30;99.90
5901;DHT22;2976;49.764;9.796;2022-12-16T18:45:25;-6.30;99.90
5901;DHT22;2976;49.764;9.796;2022-12-16T18:48:09;-6.40;99.90
5901;DHT22;2976;49.764;9.796;2022-12-16T18:50:54;-6.30;99.90
5901;DHT22;2976;49.764;9.796;2022-12-16T18:53:39;-6.20;99.90
5901;DHT22;2976;49.764;9.796;2022-12-16T18:56:25;-6.10;99.90
5901;DHT22;2976;49.764;9.796;2022-12-16T18:59:09;-6.20;99.90
5901;DHT22;2976;49.764;9.796;2022-12-16T19:01:53;-6.30;99.90
5901;DHT22;2976;49.764;9.796;2022-12-16T19:04:37;-6.30;99.90
5901;DHT22;2976;49.764;9.796;2022-12-16T19:07:21;-6.40;99.90
5901;DHT22;2976;49.764;9.796;2022-12-16T19:10:05;-6.50;99.90
5901;DHT22;2976;49.764;9.796;2022-12-16T19:12:54;-6.60;99.90
5901;DHT22;2976;49.764;9.796;2022-12-16T19:15:38;-6.80;99.90
5901;DHT22;2976;49.764;9.796;2022-12-16T19:18:22;-6.90;99.90
5901;DHT22;2976;49.764;9.796;2022-12-16T19:21:07;-6.90;99.90
5901;DHT22;2976;49.764;9.796;2022-12-16T19:23:52;-7.00;99.90
5901;DHT22;2976;49.764;9.796;2022-12-16T19:26:36;-7.10;99.90
5901;DHT22;2976;49.764;9.796;2022-12-16T19:29:39;-7.20;99.90
5901;DHT22;2976;49.764;9.796;2022-12-16T19:32:23;-7.20;99.90
5901;DHT22;2976;49.764;9.796;2022-12-16T19:35:07;-7.30;99.90
5901;DHT22;2976;49.764;9.796;2022-12-16T19:37:52;-7.30;99.90